createdAt,value
2019-04-25T00:01:08.676Z,14.60
2019-04-25T00:03:38.372Z,14.60
2019-04-25T00:06:07.921Z,14.60
2019-04-25T00:08:37.352Z,14.70
2019-04-25T00:11:07.770Z,14.70
2019-04-25T00:13:37.331Z,14.70
2019-04-25T00:16:07.649Z,14.70
2019-04-25T00:18:36.137Z,14.70
2019-04-25T00:21:13.008Z,14.70
2019-04-25T00:23:43.762Z,14.80
2019-04-25T00:26:41.503Z,14.80
2019-04-25T00:29:13.188Z,14.80
2019-04-25T00:31:43.709Z,14.80
2019-04-25T00:34:12.918Z,14.80
2019-04-25T00:36:43.522Z,14.80
2019-04-25T00:39:11.919Z,14.80
2019-04-25T00:41:43.857Z,14.80
2019-04-25T00:44:12.137Z,14.80
2019-04-25T00:46:43.285Z,14.80
2019-04-25T00:49:12.265Z,14.90
2019-04-25T00:51:42.676Z,14.90
2019-04-25T00:54:11.911Z,14.90
2019-04-25T00:56:43.301Z,14.90
2019-04-25T00:59:16.812Z,14.90
2019-04-25T01:02:16.584Z,14.90
2019-04-25T01:04:45.257Z,14.90
2019-04-25T01:07:13.805Z,14.90
2019-04-25T01:09:43.470Z,14.90
2019-04-25T01:12:13.577Z,14.90
2019-04-25T01:14:42.121Z,14.90
2019-04-25T01:17:11.685Z,15.00
2019-04-25T01:19:40.656Z,15.00
2019-04-25T01:22:09.397Z,14.90
2019-04-25T01:24:37.891Z,15.40
2019-04-25T01:27:08.230Z,15.00
2019-04-25T01:29:36.737Z,15.00
2019-04-25T01:32:07.580Z,15.00
2019-04-25T01:34:54.637Z,14.90
2019-04-25T01:37:51.111Z,14.90
2019-04-25T01:40:39.653Z,14.90
2019-04-25T01:43:29.577Z,14.90
2019-04-25T01:45:58.176Z,14.90
2019-04-25T01:48:26.615Z,14.90
2019-04-25T01:50:55.479Z,14.90
2019-04-25T01:53:24.235Z,15.00
2019-04-25T01:56:00.665Z,14.90
2019-04-25T01:58:23.659Z,14.90
2019-04-25T02:00:54.647Z,14.90
2019-04-25T02:03:27.008Z,14.90
2019-04-25T02:05:54.891Z,15.00
2019-04-25T02:08:23.939Z,14.90
2019-04-25T02:11:03.201Z,15.00
2019-04-25T02:13:33.657Z,14.90
2019-04-25T02:16:05.292Z,14.90
2019-04-25T02:18:34.023Z,15.00
2019-04-25T02:21:04.514Z,15.00
2019-04-25T02:23:34.112Z,14.90
2019-04-25T02:26:13.867Z,14.90
2019-04-25T02:28:33.789Z,14.90
2019-04-25T02:31:07.821Z,14.90
2019-04-25T02:33:34.029Z,14.90
2019-04-25T02:36:08.267Z,14.90
2019-04-25T02:38:34.327Z,14.90
2019-04-25T02:41:08.302Z,14.90
2019-04-25T02:43:35.072Z,15.00
2019-04-25T02:46:26.987Z,15.00
2019-04-25T02:49:28.950Z,14.90
2019-04-25T02:55:39.578Z,14.90
2019-04-25T02:58:10.043Z,14.90
2019-04-25T03:00:51.727Z,14.90
2019-04-25T03:03:09.148Z,14.90
2019-04-25T03:05:37.707Z,14.90
2019-04-25T03:08:09.026Z,14.90
2019-04-25T03:10:36.423Z,14.90
2019-04-25T03:13:09.623Z,14.90
2019-04-25T03:15:36.577Z,14.90
2019-04-25T03:18:09.251Z,14.90
2019-04-25T03:20:44.996Z,15.00
2019-04-25T03:23:35.073Z,14.90
2019-04-25T03:26:06.155Z,14.90
2019-04-25T03:28:35.489Z,14.90
2019-04-25T03:31:10.647Z,14.90
2019-04-25T03:33:37.750Z,14.90
2019-04-25T03:36:05.512Z,14.90
2019-04-25T03:38:35.041Z,14.90
2019-04-25T03:41:04.820Z,14.90
2019-04-25T03:43:33.762Z,14.90
2019-04-25T03:46:04.962Z,14.90
2019-04-25T03:48:36.466Z,14.90
2019-04-25T03:51:05.392Z,14.90
2019-04-25T03:53:34.352Z,14.90
2019-04-25T03:56:04.472Z,14.90
2019-04-25T03:58:33.783Z,14.90
2019-04-25T04:01:03.912Z,14.90
2019-04-25T04:03:33.916Z,14.90
2019-04-25T04:06:04.356Z,14.80
2019-04-25T04:08:35.446Z,14.80
2019-04-25T04:11:05.376Z,14.90
2019-04-25T04:13:34.277Z,14.80
2019-04-25T04:16:04.220Z,14.80
2019-04-25T04:18:54.083Z,14.80
2019-04-25T04:22:00.245Z,14.80
2019-04-25T04:24:36.202Z,14.80
2019-04-25T04:27:14.097Z,14.70
2019-04-25T04:29:43.202Z,14.80
2019-04-25T04:32:12.524Z,14.80
2019-04-25T04:34:45.166Z,14.70
2019-04-25T04:37:14.642Z,14.80
2019-04-25T04:39:43.720Z,14.70
2019-04-25T04:42:14.021Z,14.70
2019-04-25T04:44:43.750Z,14.70
2019-04-25T04:47:14.071Z,14.70
2019-04-25T04:49:43.942Z,14.70
2019-04-25T04:52:14.339Z,14.70
2019-04-25T04:54:43.975Z,14.70
2019-04-25T04:57:23.493Z,14.60
2019-04-25T04:59:43.845Z,14.70
2019-04-25T05:02:33.222Z,14.70
2019-04-25T05:05:30.418Z,14.70
2019-04-25T05:08:01.762Z,14.70
2019-04-25T05:10:30.248Z,14.70
2019-04-25T05:12:58.683Z,14.70
2019-04-25T05:15:27.169Z,14.70
2019-04-25T05:17:55.604Z,14.70
2019-04-25T05:20:24.339Z,14.80
2019-04-25T05:22:54.603Z,14.80
2019-04-25T05:25:24.581Z,14.80
2019-04-25T05:28:02.252Z,14.80
2019-04-25T05:30:29.900Z,14.80
2019-04-25T05:32:58.323Z,14.80
2019-04-25T05:35:26.821Z,14.80
2019-04-25T05:37:55.152Z,14.90
2019-04-25T05:40:24.433Z,14.80
2019-04-25T05:43:07.358Z,14.90
2019-04-25T05:45:35.856Z,14.90
2019-04-25T05:48:05.961Z,14.90
2019-04-25T05:50:34.644Z,14.90
2019-04-25T05:53:04.319Z,14.90
2019-04-25T05:55:34.146Z,14.90
2019-04-25T05:58:03.866Z,14.90
2019-04-25T06:00:34.115Z,14.90
2019-04-25T06:03:03.631Z,14.90
2019-04-25T06:05:33.508Z,14.90
2019-04-25T06:08:04.118Z,14.90
2019-04-25T06:10:39.698Z,15.00
2019-04-25T06:13:16.213Z,14.90
2019-04-25T06:15:46.501Z,14.90
2019-04-25T06:18:24.877Z,14.90
2019-04-25T06:20:54.307Z,15.00
2019-04-25T06:23:41.552Z,15.00
2019-04-25T06:26:23.099Z,15.00
2019-04-25T06:28:52.076Z,15.00
2019-04-25T06:31:11.181Z,15.00
2019-04-25T06:33:39.622Z,15.00
2019-04-25T06:36:08.204Z,15.10
2019-04-25T06:38:36.652Z,15.10
2019-04-25T06:41:05.152Z,15.10
2019-04-25T06:43:34.486Z,15.10
2019-04-25T06:46:21.107Z,15.10
2019-04-25T06:48:57.445Z,15.10
2019-04-25T06:51:54.701Z,15.10
2019-04-25T06:54:25.445Z,15.10
2019-04-25T06:56:53.924Z,15.10
2019-04-25T06:59:24.947Z,15.10
2019-04-25T07:01:54.112Z,15.10
2019-04-25T07:04:26.174Z,15.10
2019-04-25T07:06:53.586Z,15.10
2019-04-25T07:09:24.408Z,15.20
2019-04-25T07:11:53.781Z,15.20
2019-04-25T07:14:25.450Z,15.20
2019-04-25T07:16:53.278Z,15.30
2019-04-25T07:19:21.805Z,15.30
2019-04-25T07:21:50.725Z,15.30
2019-04-25T07:24:19.154Z,15.30
2019-04-25T07:26:56.116Z,15.30
2019-04-25T07:29:33.737Z,15.30
2019-04-25T07:32:32.516Z,15.30
2019-04-25T07:35:01.626Z,15.30
2019-04-25T07:37:30.117Z,15.30
2019-04-25T07:39:58.548Z,15.30
2019-04-25T07:42:27.671Z,15.30
2019-04-25T07:44:56.302Z,15.30
2019-04-25T07:47:26.040Z,15.30
2019-04-25T07:49:55.197Z,15.30
2019-04-25T07:52:23.625Z,15.40
2019-04-25T07:54:53.533Z,15.40
2019-04-25T07:57:23.791Z,15.40
2019-04-25T07:59:53.720Z,15.40
2019-04-25T08:02:23.302Z,15.50
2019-04-25T08:04:51.988Z,15.50
2019-04-25T08:07:20.472Z,15.60
2019-04-25T08:09:48.974Z,15.50
2019-04-25T08:12:17.396Z,15.50
2019-04-25T08:14:51.033Z,15.50
2019-04-25T08:17:39.874Z,15.40
2019-04-25T08:20:09.106Z,15.40
2019-04-25T08:22:50.081Z,15.40
2019-04-25T08:25:07.927Z,15.40
2019-04-25T08:27:36.756Z,15.50
2019-04-25T08:30:05.845Z,15.40
2019-04-25T08:32:35.512Z,15.40
2019-04-25T08:35:04.620Z,15.40
2019-04-25T08:37:34.469Z,15.40
2019-04-25T08:40:04.064Z,15.40
2019-04-25T08:42:35.236Z,15.40
2019-04-25T08:45:04.053Z,15.40
2019-04-25T08:47:33.205Z,15.50
2019-04-25T08:50:34.052Z,15.50
2019-04-25T08:53:01.773Z,15.50
2019-04-25T08:55:47.673Z,15.50
2019-04-25T08:58:28.300Z,15.50
2019-04-25T09:01:19.505Z,15.50
2019-04-25T09:03:53.912Z,15.50
2019-04-25T09:06:24.364Z,15.50
2019-04-25T09:08:54.052Z,15.50
2019-04-25T09:11:24.493Z,15.60
2019-04-25T09:13:53.762Z,15.60
2019-04-25T09:16:23.901Z,15.60
2019-04-25T09:18:53.947Z,15.60
2019-04-25T09:21:23.772Z,15.70
2019-04-25T09:23:53.553Z,15.70
2019-04-25T09:26:24.017Z,15.80
2019-04-25T09:28:53.622Z,15.80
2019-04-25T09:31:23.630Z,15.80
2019-04-25T09:33:54.525Z,15.90
2019-04-25T09:36:24.057Z,15.90
2019-04-25T09:38:55.269Z,15.90
2019-04-25T09:41:23.766Z,16.00
2019-04-25T09:43:55.125Z,16.00
2019-04-25T09:46:30.125Z,16.00
2019-04-25T09:49:19.821Z,16.10
2019-04-25T09:52:16.514Z,16.10
2019-04-25T09:54:53.538Z,16.10
2019-04-25T09:57:36.549Z,16.10
2019-04-25T10:00:07.745Z,16.20
2019-04-25T10:02:36.916Z,16.10
2019-04-25T10:05:05.754Z,16.00
2019-04-25T10:07:34.236Z,16.00
2019-04-25T10:10:03.769Z,16.00
2019-04-25T10:12:34.129Z,16.00
2019-04-25T10:15:23.673Z,15.90
2019-04-25T10:17:52.581Z,15.90
2019-04-25T10:20:21.016Z,15.90
2019-04-25T10:22:49.514Z,15.90
2019-04-25T10:25:19.424Z,15.90
2019-04-25T10:27:49.322Z,15.90
2019-04-25T10:30:23.166Z,15.90
2019-04-25T10:32:50.785Z,15.90
2019-04-25T10:35:20.312Z,15.90
2019-04-25T10:37:48.792Z,15.90
2019-04-25T10:40:17.633Z,15.90
2019-04-25T10:42:48.023Z,15.90
2019-04-25T10:45:23.410Z,15.90
2019-04-25T10:47:46.896Z,15.80
2019-04-25T10:50:15.798Z,15.80
2019-04-25T10:52:45.833Z,15.80
2019-04-25T10:55:14.613Z,15.80
2019-04-25T10:57:44.885Z,15.70
2019-04-25T11:00:35.873Z,15.80
2019-04-25T11:03:24.141Z,15.80
2019-04-25T11:05:54.409Z,15.80
2019-04-25T11:08:24.486Z,15.80
2019-04-25T11:10:54.967Z,15.70
2019-04-25T11:13:24.046Z,15.60
2019-04-25T11:15:52.590Z,15.60
2019-04-25T11:18:21.182Z,15.50
2019-04-25T11:20:50.369Z,15.60
2019-04-25T11:23:19.102Z,15.60
2019-04-25T11:25:47.633Z,15.60
2019-04-25T11:28:16.126Z,15.60
2019-04-25T11:30:46.878Z,15.60
2019-04-25T11:33:16.545Z,15.60
2019-04-25T11:35:47.494Z,15.60
2019-04-25T11:38:20.510Z,15.70
2019-04-25T11:40:56.184Z,15.60
2019-04-25T11:43:24.714Z,15.60
2019-04-25T11:45:55.552Z,15.60
2019-04-25T11:48:23.872Z,15.50
2019-04-25T11:50:55.721Z,15.40
2019-04-25T11:53:24.755Z,15.40
2019-04-25T11:55:53.813Z,15.40
2019-04-25T11:58:23.761Z,15.40
2019-04-25T12:00:53.816Z,15.30
2019-04-25T12:03:22.976Z,15.30
2019-04-25T12:05:53.162Z,15.30
2019-04-25T12:08:21.825Z,15.30
2019-04-25T12:10:50.281Z,15.30
2019-04-25T12:13:18.895Z,15.30
2019-04-25T12:15:47.233Z,15.20
2019-04-25T12:18:15.660Z,15.20
2019-04-25T12:20:44.719Z,15.10
2019-04-25T12:23:14.508Z,15.10
2019-04-25T12:25:45.338Z,15.10
2019-04-25T12:28:14.156Z,15.10
2019-04-25T12:30:43.952Z,15.10
2019-04-25T12:33:21.158Z,15.10
2019-04-25T12:35:43.767Z,15.10
2019-04-25T12:38:14.021Z,15.20
2019-04-25T12:40:43.448Z,15.20
2019-04-25T12:43:13.719Z,15.20
2019-04-25T12:46:00.663Z,15.20
2019-04-25T12:48:29.216Z,15.20
2019-04-25T12:50:58.181Z,15.30
2019-04-25T12:53:26.622Z,15.30
2019-04-25T12:55:56.121Z,15.30
2019-04-25T12:58:24.761Z,15.30
2019-04-25T13:00:58.199Z,15.40
2019-04-25T13:03:24.183Z,15.30
2019-04-25T13:05:54.006Z,15.30
2019-04-25T13:08:24.142Z,15.30
2019-04-25T13:10:54.392Z,15.30
2019-04-25T13:13:24.136Z,15.30
2019-04-25T13:15:53.277Z,15.30
2019-04-25T13:18:21.888Z,15.30
2019-04-25T13:20:50.844Z,15.30
2019-04-25T13:23:19.324Z,15.30
2019-04-25T13:25:47.928Z,15.30
2019-04-25T13:28:38.698Z,15.40
2019-04-25T13:31:41.806Z,15.40
2019-04-25T13:34:17.494Z,15.30
2019-04-25T13:36:46.083Z,15.30
2019-04-25T13:39:18.203Z,15.30
2019-04-25T13:41:46.806Z,15.30
2019-04-25T13:44:15.345Z,15.30
2019-04-25T13:46:44.260Z,15.30
2019-04-25T13:49:14.117Z,15.30
2019-04-25T13:51:42.821Z,15.30
2019-04-25T13:54:13.059Z,15.40
2019-04-25T13:56:43.378Z,15.40
2019-04-25T13:59:12.236Z,15.40
2019-04-25T14:01:40.842Z,15.50
2019-04-25T14:04:10.448Z,15.50
2019-04-25T14:06:39.389Z,15.60
2019-04-25T14:09:13.497Z,15.50
2019-04-25T14:11:41.991Z,15.60
2019-04-25T14:14:10.531Z,15.60
2019-04-25T14:17:03.073Z,15.60
2019-04-25T14:19:54.213Z,15.60
2019-04-25T14:22:23.381Z,15.60
2019-04-25T14:24:53.969Z,15.60
2019-04-25T14:27:24.019Z,15.50
2019-04-25T14:29:53.589Z,15.60
2019-04-25T14:32:26.824Z,15.60
2019-04-25T14:34:54.484Z,15.50
2019-04-25T14:37:26.327Z,15.50
2019-04-25T14:39:55.305Z,15.50
2019-04-25T14:42:24.491Z,15.50
2019-04-25T14:44:53.271Z,15.40
2019-04-25T14:47:23.139Z,15.50
2019-04-25T14:49:52.008Z,15.50
2019-04-25T14:52:21.229Z,15.50
2019-04-25T14:54:58.746Z,15.50
2019-04-25T14:57:29.814Z,15.50
2019-04-25T15:00:01.854Z,15.40
2019-04-25T15:02:30.717Z,15.40
2019-04-25T15:04:59.153Z,15.50
2019-04-25T15:07:28.108Z,15.40
2019-04-25T15:09:57.379Z,15.50
2019-04-25T15:12:26.849Z,15.50
2019-04-25T15:14:55.684Z,15.50
2019-04-25T15:17:24.179Z,15.60
2019-04-25T15:19:52.617Z,15.60
2019-04-25T15:22:21.105Z,15.60
2019-04-25T15:24:49.533Z,15.70
2019-04-25T15:27:18.334Z,15.70
2019-04-25T15:29:47.133Z,15.70
2019-04-25T15:32:18.825Z,15.70
2019-04-25T15:34:52.973Z,15.70
2019-04-25T15:37:30.642Z,15.70
2019-04-25T15:40:06.925Z,15.70
2019-04-25T15:42:48.174Z,15.60
2019-04-25T15:45:36.500Z,15.60
2019-04-25T15:48:07.270Z,15.60
2019-04-25T15:50:35.748Z,15.60
2019-04-25T15:53:04.356Z,15.60
2019-04-25T15:55:33.246Z,15.60
2019-04-25T15:58:01.731Z,15.60
2019-04-25T16:00:37.140Z,15.60
2019-04-25T16:03:06.830Z,15.50
2019-04-25T16:05:35.889Z,15.50
2019-04-25T16:08:05.395Z,15.50
2019-04-25T16:10:34.032Z,15.50
2019-04-25T16:13:03.584Z,15.50
2019-04-25T16:15:32.024Z,15.50
2019-04-25T16:18:01.289Z,15.50
2019-04-25T16:20:30.113Z,15.50
2019-04-25T16:22:58.714Z,15.50
2019-04-25T16:25:27.504Z,15.50
2019-04-25T16:27:55.934Z,15.50
2019-04-25T16:30:28.422Z,15.50
2019-04-25T16:32:57.170Z,15.50
2019-04-25T16:35:25.677Z,15.50
2019-04-25T16:37:54.108Z,15.50
2019-04-25T16:40:23.002Z,15.50
2019-04-25T16:42:51.794Z,15.50
2019-04-25T16:45:20.397Z,15.50
2019-04-25T16:47:48.817Z,15.50
2019-04-25T16:50:17.881Z,15.50
2019-04-25T16:52:46.401Z,15.50
2019-04-25T16:55:15.389Z,15.40
2019-04-25T16:57:43.808Z,15.50
2019-04-25T17:00:27.760Z,15.40
2019-04-25T17:02:56.204Z,15.50
2019-04-25T17:05:25.709Z,15.40
2019-04-25T17:07:54.980Z,15.40
2019-04-25T17:10:23.569Z,15.40
2019-04-25T17:12:52.452Z,15.40
2019-04-25T17:15:30.578Z,15.40
2019-04-25T17:18:20.106Z,15.40
2019-04-25T17:20:54.394Z,15.30
2019-04-25T17:23:22.924Z,15.40
2019-04-25T17:25:51.414Z,15.40
2019-04-25T17:28:19.861Z,15.40
2019-04-25T17:30:51.457Z,15.40
2019-04-25T17:33:51.316Z,15.40
2019-04-25T17:36:25.881Z,15.40
2019-04-25T17:39:25.901Z,15.40
2019-04-25T17:41:54.410Z,15.40
2019-04-25T17:44:22.827Z,15.40
2019-04-25T17:46:51.433Z,15.50
2019-04-25T17:49:19.854Z,15.50
2019-04-25T17:51:48.365Z,15.40
2019-04-25T17:54:18.464Z,15.40
2019-04-25T17:56:47.168Z,15.40
2019-04-25T17:59:15.599Z,15.40
2019-04-25T18:01:44.274Z,15.40
2019-04-25T18:04:12.808Z,15.30
2019-04-25T18:06:42.020Z,15.30
2019-04-25T18:09:10.641Z,15.30
2019-04-25T18:11:40.119Z,15.30
2019-04-25T18:14:08.930Z,15.20
2019-04-25T18:16:42.323Z,15.20
2019-04-25T18:19:34.051Z,15.20
2019-04-25T18:22:10.752Z,15.10
2019-04-25T18:24:56.786Z,15.10
2019-04-25T18:27:31.612Z,15.10
2019-04-25T18:30:00.052Z,15.00
2019-04-25T18:32:32.027Z,14.90
2019-04-25T18:35:18.875Z,15.00
2019-04-25T18:38:02.890Z,14.90
2019-04-25T18:40:56.706Z,14.90
2019-04-25T18:43:28.581Z,14.90
2019-04-25T18:46:01.673Z,14.80
2019-04-25T18:48:30.381Z,14.80
2019-04-25T18:50:58.895Z,14.80
2019-04-25T18:53:49.072Z,14.80
2019-04-25T18:56:31.669Z,14.80
2019-04-25T18:59:18.020Z,14.90
2019-04-25T19:02:24.379Z,14.80
2019-04-25T19:05:02.458Z,14.90
2019-04-25T19:07:32.036Z,14.80
2019-04-25T19:10:01.644Z,14.80
2019-04-25T19:12:31.351Z,14.80
2019-04-25T19:15:01.038Z,14.80
2019-04-25T19:17:30.629Z,14.80
2019-04-25T19:20:00.907Z,14.80
2019-04-25T19:22:31.238Z,14.80
2019-04-25T19:25:00.908Z,14.80
2019-04-25T19:27:30.590Z,14.80
2019-04-25T19:30:00.324Z,14.80
2019-04-25T19:32:31.078Z,14.90
2019-04-25T19:35:00.832Z,14.90
2019-04-25T19:37:30.367Z,14.90
2019-04-25T19:40:21.357Z,14.90
2019-04-25T19:42:54.079Z,14.90
2019-04-25T19:45:23.982Z,14.90
2019-04-25T19:47:53.818Z,14.90
2019-04-25T19:50:23.644Z,14.60
2019-04-25T19:52:53.417Z,14.30
2019-04-25T19:55:23.131Z,13.70
2019-04-25T19:57:53.328Z,13.40
2019-04-25T20:00:23.287Z,13.30
2019-04-25T20:03:12.915Z,13.00
2019-04-25T20:05:49.078Z,12.70
2019-04-25T20:08:46.840Z,12.50
2019-04-25T20:11:23.329Z,12.40
2019-04-25T20:13:53.419Z,12.30
2019-04-25T20:16:23.528Z,12.20
2019-04-25T20:18:53.954Z,12.00
2019-04-25T20:21:23.754Z,12.00
2019-04-25T20:23:54.382Z,11.80
2019-04-25T20:26:24.292Z,11.50
2019-04-25T20:28:53.893Z,11.40
2019-04-25T20:31:23.764Z,11.30
2019-04-25T20:34:04.193Z,11.20
2019-04-25T20:36:24.748Z,11.20
2019-04-25T20:38:55.386Z,10.80
2019-04-25T20:41:25.057Z,10.60
2019-04-25T20:43:55.698Z,10.50
2019-04-25T20:46:26.190Z,10.30
2019-04-25T20:48:56.414Z,10.30
2019-04-25T20:51:27.587Z,10.30
2019-04-25T20:53:57.107Z,10.30
2019-04-25T20:56:25.947Z,10.30
2019-04-25T20:58:55.565Z,10.30
2019-04-25T21:01:24.502Z,10.20
2019-04-25T21:03:54.092Z,10.10
2019-04-25T21:06:27.937Z,10.00
2019-04-25T21:08:57.547Z,10.00
2019-04-25T21:11:26.192Z,10.00
2019-04-25T21:14:12.541Z,9.90
2019-04-25T21:16:58.568Z,10.00
2019-04-25T21:19:29.775Z,9.90
2019-04-25T21:21:58.723Z,9.90
2019-04-25T21:24:27.326Z,9.80
2019-04-25T21:26:55.865Z,9.80
2019-04-25T21:29:25.164Z,9.90
2019-04-25T21:31:54.634Z,10.00
2019-04-25T21:34:27.028Z,10.00
2019-04-25T21:36:53.662Z,10.00
2019-04-25T21:39:38.082Z,10.00
2019-04-25T21:42:23.498Z,10.00
2019-04-25T21:44:52.826Z,10.10
2019-04-25T21:47:21.800Z,10.10
2019-04-25T21:49:51.115Z,10.10
2019-04-25T21:52:21.073Z,10.10
2019-04-25T21:54:50.236Z,10.00
2019-04-25T21:57:18.930Z,10.00
2019-04-25T21:59:58.828Z,10.10
2019-04-25T22:02:18.636Z,10.10
2019-04-25T22:04:47.474Z,10.10
2019-04-25T22:07:16.917Z,10.20
2019-04-25T22:09:46.132Z,10.20
2019-04-25T22:12:14.933Z,10.20
2019-04-25T22:14:43.370Z,10.20
2019-04-25T22:17:12.554Z,10.10
2019-04-25T22:19:41.344Z,10.20
2019-04-25T22:22:10.376Z,10.20
2019-04-25T22:24:38.984Z,10.20
2019-04-25T22:27:11.118Z,10.20
2019-04-25T22:29:42.421Z,10.10
2019-04-25T22:32:27.474Z,10.10
2019-04-25T22:35:14.199Z,10.10
2019-04-25T22:37:43.350Z,10.10
2019-04-25T22:40:11.888Z,10.10
2019-04-25T22:42:40.750Z,10.10
2019-04-25T22:45:09.529Z,9.90
2019-04-25T22:47:38.069Z,10.00
2019-04-25T22:50:06.716Z,10.00
2019-04-25T22:52:35.694Z,10.00
2019-04-25T22:55:04.746Z,10.00
2019-04-25T22:57:33.784Z,10.00
2019-04-25T23:00:03.237Z,10.00
2019-04-25T23:02:38.390Z,9.90
2019-04-25T23:05:17.208Z,9.90
2019-04-25T23:07:45.776Z,9.90
2019-04-25T23:10:14.782Z,10.00
2019-04-25T23:12:43.316Z,9.90
2019-04-25T23:15:13.715Z,10.00
2019-04-25T23:17:42.157Z,10.00
2019-04-25T23:20:11.731Z,10.00
2019-04-25T23:22:40.228Z,10.00
2019-04-25T23:25:12.024Z,10.00
2019-04-25T23:28:01.718Z,10.00
2019-04-25T23:30:40.989Z,10.00
2019-04-25T23:33:10.532Z,10.00
2019-04-25T23:35:39.428Z,9.90
2019-04-25T23:38:09.293Z,10.00
2019-04-25T23:40:38.522Z,9.90
2019-04-25T23:43:07.541Z,9.90
2019-04-25T23:45:36.384Z,9.90
2019-04-25T23:48:06.069Z,9.90
2019-04-25T23:50:36.094Z,9.80
2019-04-25T23:53:04.593Z,9.90
2019-04-25T23:55:33.340Z,9.80
2019-04-25T23:58:01.768Z,9.80
